Greensboro, NC

6:35 AM EDT on August 20, 2014 (GMT -0400)
Northern High School | Change Station
CLOSE
Current Station
Personal Weather Station
Location: Greensboro, NC
Elevation: 825 ft
Nearby Weather Stations

Elev 825 ft 36.20 °N, 79.79 °W | Updated 2 seconds ago

Mostly Cloudy
Mostly Cloudy
70.2 °F
Feels Like 70.2 °F
N
1.6
Wind Variable Wind from East
Gusts 2.3 mph

Today
High -- | Low -- °F
--% Chance of Precip.
Yesterday
High -- | Low -- °F
Precip. -- in
6:41 AM 8:02 PM
Waning Crescent, 22% visible
Pressure 29.91 in
Visibility 6.0 miles
Clouds Mostly Cloudy 11000 ft
Dew Point 70 °F
Humidity 98%
Rainfall 0.00 in
Snow Depth Not available.
UV 0 out of 12
Pollen 8.00 out of 12
Ozone Good
PM2.5 Good
Flu Activity Not available.
METAR KGSO 200954Z 07003KT 6SM BR BKN110 22/21 A2995 RMK AO2 SLP129 T02170211

More Conditions Fewer Conditions

Pressure 29.91 in
Visibility 6.0 miles
Clouds Mostly Cloudy 11000 ft
Dew Point 70 °F
Humidity 98%
Rainfall 0.00 in
Snow Depth Not available.
UV 0 out of 12
Pollen 8.00 out of 12
Ozone Good
PM2.5 Good
Flu Activity Not available.
METAR KGSO 200954Z 07003KT 6SM BR BKN110 22/21 A2995 RMK AO2 SLP129 T02170211

More Conditions Fewer Conditions

10-Day Weather Forecast

Almanac

Astronomy

Aug. 20, 2014 Rise Set
Actual Time 6:41 AM EDT 8:02 PM EDT
Civil Twilight 6:14 AM EDT 8:29 PM EDT
Nautical Twilight 5:42 AM EDT 9:01 PM EDT
Astronomical Twilight 5:08 AM EDT 9:35 PM EDT
Moon 2:23 AM EDT 4:43 PM EDT
Length of Visible Light 14h 15m
Length of Day
13h 21m
Tomorrow will be 2m 4s shorter.
Waning Crescent, 22% of the Moon is Illuminated
Today
Waning Crescent
Aug 25
New
Sep 2
First Quarter
Sep 8
Full
Sep 15
Last Quarter

Today's Extremes

State Highs State Lows

Community

WunderPhotos

Upload Photos

1,745,604 photos uploaded!

Nearby

Air Quality

  Air Quality AQ Index Pollutant
Yesterday Good
OZONE
Yesterday Good
PM2.5
Current Good
PM2.5
Current Good
OZONE
Wednesday Moderate
OZONE
Wednesday Good
PM2.5
Thursday Moderate
OZONE
Thursday Moderate
PM2.5
Friday Moderate
OZONE
Friday Moderate
PM2.5

Snow Depth

Station Depth Elevation
No new snow has been reported.

Earthquake Activity

City Distance Mag. Time & Date
No recent earthquake activity has been reported nearby.
Minimum magnitude displayed is 2.5.

Coastal Water Temperatures

Place Temperature
No Stations Reporting

Nearby Weather Stations